createdAt,value
2023-03-15T00:01:39.597Z,5.50
2023-03-15T00:04:18.960Z,6.20
2023-03-15T00:06:55.980Z,5.90
2023-03-15T00:09:35.403Z,6.20
2023-03-15T00:12:12.579Z,5.40
2023-03-15T00:14:48.551Z,6.50
2023-03-15T00:17:26.135Z,6.20
2023-03-15T00:20:06.618Z,6.20
2023-03-15T00:22:51.308Z,6.00
2023-03-15T00:25:28.043Z,6.10
2023-03-15T00:28:04.239Z,6.10
2023-03-15T00:30:40.816Z,5.50
2023-03-15T00:33:19.068Z,6.00
2023-03-15T00:35:54.842Z,6.50
2023-03-15T00:38:33.338Z,5.90
2023-03-15T00:41:13.946Z,6.00
2023-03-15T00:43:51.520Z,5.80
2023-03-15T00:46:28.062Z,6.10
2023-03-15T00:49:04.912Z,5.10
2023-03-15T00:51:43.965Z,5.40
2023-03-15T00:54:25.250Z,5.20
2023-03-15T00:57:03.706Z,5.10
2023-03-15T00:59:41.105Z,4.90
2023-03-15T01:02:22.605Z,4.50
2023-03-15T01:05:04.287Z,4.20
2023-03-15T01:07:42.332Z,4.70
2023-03-15T01:10:22.296Z,4.40
2023-03-15T01:13:00.489Z,4.20
2023-03-15T01:15:45.271Z,3.70
2023-03-15T01:18:24.025Z,4.10
2023-03-15T01:21:02.996Z,3.50
2023-03-15T01:23:39.880Z,3.90
2023-03-15T01:26:20.126Z,3.40
2023-03-15T01:29:02.187Z,3.50
2023-03-15T01:31:44.876Z,3.50
2023-03-15T01:34:26.005Z,3.60
2023-03-15T01:37:09.412Z,3.60
2023-03-15T01:39:51.042Z,3.20
2023-03-15T01:42:31.756Z,3.60
2023-03-15T01:45:21.150Z,3.40
2023-03-15T01:48:01.766Z,3.20
2023-03-15T01:50:45.200Z,3.60
2023-03-15T01:53:27.079Z,3.60
2023-03-15T01:56:07.599Z,3.30
2023-03-15T01:58:47.793Z,3.60
2023-03-15T02:01:31.495Z,3.50
2023-03-15T02:04:14.859Z,2.90
2023-03-15T02:06:59.299Z,3.20
2023-03-15T02:09:46.834Z,2.70
2023-03-15T02:12:26.728Z,2.90
2023-03-15T02:15:05.150Z,2.70
2023-03-15T02:17:43.480Z,3.00
2023-03-15T02:20:32.460Z,3.00
2023-03-15T02:23:12.684Z,3.30
2023-03-15T02:25:59.303Z,2.80
2023-03-15T02:28:38.958Z,2.90
2023-03-15T02:31:15.556Z,2.80
2023-03-15T02:33:57.512Z,2.60
2023-03-15T02:36:35.010Z,2.80
2023-03-15T02:39:20.956Z,2.80
2023-03-15T02:41:59.805Z,2.60
2023-03-15T02:44:37.258Z,2.30
2023-03-15T02:47:24.356Z,2.60
2023-03-15T02:50:03.093Z,2.30
2023-03-15T02:52:41.188Z,2.50
2023-03-15T02:55:19.407Z,2.50
2023-03-15T02:57:59.753Z,2.70
2023-03-15T03:00:39.726Z,2.60
2023-03-15T03:03:15.608Z,2.90
2023-03-15T03:05:52.140Z,2.50
2023-03-15T03:08:29.163Z,2.80
2023-03-15T03:11:04.188Z,2.70
2023-03-15T03:13:41.906Z,2.80
2023-03-15T03:16:18.572Z,2.60
2023-03-15T03:18:55.753Z,2.20
2023-03-15T03:21:34.057Z,2.90
2023-03-15T03:24:10.742Z,2.50
2023-03-15T03:26:47.119Z,2.40
2023-03-15T03:29:23.093Z,2.80
2023-03-15T03:32:00.495Z,3.10
2023-03-15T03:34:39.976Z,2.60
2023-03-15T03:37:15.171Z,2.40
2023-03-15T03:39:51.638Z,2.60
2023-03-15T03:42:30.202Z,2.40
2023-03-15T03:45:05.908Z,2.30
2023-03-15T03:47:43.048Z,2.10
2023-03-15T03:50:22.699Z,2.50
2023-03-15T03:53:00.062Z,3.40
2023-03-15T03:55:36.752Z,2.40
2023-03-15T03:58:19.670Z,2.60
2023-03-15T04:00:58.403Z,3.50
2023-03-15T04:03:37.252Z,2.90
2023-03-15T04:06:14.179Z,2.90
2023-03-15T04:08:49.246Z,3.40
2023-03-15T04:11:27.762Z,4.10
2023-03-15T04:14:03.392Z,3.30
2023-03-15T04:16:38.420Z,3.20
2023-03-15T04:19:13.791Z,3.00
2023-03-15T04:21:52.509Z,3.00
2023-03-15T04:24:29.915Z,3.00
2023-03-15T04:27:07.344Z,3.50
2023-03-15T04:29:44.739Z,3.50
2023-03-15T04:32:22.596Z,3.50
2023-03-15T04:34:59.030Z,3.60
2023-03-15T04:37:35.803Z,3.10
2023-03-15T04:40:14.315Z,4.10
2023-03-15T04:42:50.235Z,4.30
2023-03-15T04:45:31.878Z,3.30
2023-03-15T04:48:08.990Z,3.30
2023-03-15T04:50:45.896Z,4.50
2023-03-15T04:53:22.607Z,3.70
2023-03-15T04:55:58.695Z,3.60
2023-03-15T04:58:33.599Z,3.70
2023-03-15T05:01:16.757Z,3.20
2023-03-15T05:03:55.627Z,3.40
2023-03-15T05:06:31.495Z,2.90
2023-03-15T05:09:08.216Z,3.20
2023-03-15T05:11:49.453Z,3.10
2023-03-15T05:14:28.823Z,3.80
2023-03-15T05:17:08.283Z,4.00
2023-03-15T05:19:46.346Z,3.00
2023-03-15T05:22:26.294Z,3.20
2023-03-15T05:25:04.677Z,3.10
2023-03-15T05:27:40.476Z,4.50
2023-03-15T05:30:17.216Z,3.40
2023-03-15T05:32:55.510Z,3.50
2023-03-15T05:35:31.530Z,2.70
2023-03-15T05:38:10.542Z,2.90
2023-03-15T05:40:48.258Z,2.70
2023-03-15T05:43:25.429Z,3.80
2023-03-15T05:46:05.627Z,3.00
2023-03-15T05:48:43.667Z,3.90
2023-03-15T05:51:21.806Z,3.30
2023-03-15T05:53:56.506Z,2.70
2023-03-15T05:56:34.555Z,3.10
2023-03-15T05:59:11.307Z,3.80
2023-03-15T06:01:47.671Z,4.20
2023-03-15T06:04:24.810Z,2.80
2023-03-15T06:07:02.758Z,3.50
2023-03-15T06:09:38.718Z,3.30
2023-03-15T06:12:14.772Z,4.10
2023-03-15T06:14:54.924Z,3.20
2023-03-15T06:17:32.055Z,3.70
2023-03-15T06:20:07.855Z,4.60
2023-03-15T06:22:42.534Z,2.80
2023-03-15T06:25:21.509Z,2.90
2023-03-15T06:27:59.102Z,3.40
2023-03-15T06:30:38.652Z,3.80
2023-03-15T06:33:15.783Z,3.60
2023-03-15T06:35:53.598Z,3.40
2023-03-15T06:38:32.344Z,3.60
2023-03-15T06:41:18.945Z,3.30
2023-03-15T06:44:01.145Z,3.60
2023-03-15T06:46:40.949Z,3.60
2023-03-15T06:49:17.432Z,3.60
2023-03-15T06:51:58.681Z,3.50
2023-03-15T06:54:36.384Z,3.30
2023-03-15T06:57:13.105Z,4.40
2023-03-15T06:59:51.797Z,3.30
2023-03-15T07:02:37.126Z,3.40
2023-03-15T07:05:14.009Z,3.50
2023-03-15T07:07:54.811Z,3.30
2023-03-15T07:10:34.498Z,4.40
2023-03-15T07:13:13.166Z,4.00
2023-03-15T07:15:58.413Z,4.20
2023-03-15T07:18:34.947Z,4.30
2023-03-15T07:21:09.932Z,3.40
2023-03-15T07:23:50.874Z,4.00
2023-03-15T07:26:28.096Z,4.10
2023-03-15T07:29:03.678Z,4.00
2023-03-15T07:31:42.099Z,4.50
2023-03-15T07:34:17.802Z,5.60
2023-03-15T07:36:53.803Z,6.50
2023-03-15T07:39:32.582Z,7.10
2023-03-15T07:42:08.429Z,7.30
2023-03-15T07:44:47.764Z,7.20
2023-03-15T07:47:22.298Z,8.10
2023-03-15T07:49:58.168Z,8.30
2023-03-15T07:52:34.264Z,7.90
2023-03-15T07:55:11.535Z,8.50
2023-03-15T07:57:48.363Z,7.60
2023-03-15T08:00:27.344Z,8.40
2023-03-15T08:03:03.677Z,8.00
2023-03-15T08:05:41.011Z,8.30
2023-03-15T08:08:15.757Z,9.10
2023-03-15T08:10:55.820Z,7.70
2023-03-15T08:13:30.810Z,7.10
2023-03-15T08:19:14.545Z,7.80
2023-03-15T08:21:54.931Z,8.80
2023-03-15T08:24:30.180Z,7.50
2023-03-15T08:27:10.200Z,7.90
2023-03-15T08:29:48.146Z,6.40
2023-03-15T08:32:28.763Z,7.70
2023-03-15T08:35:06.372Z,6.50
2023-03-15T08:37:43.391Z,8.20
2023-03-15T08:40:24.992Z,8.60
2023-03-15T08:43:02.519Z,7.40
2023-03-15T08:45:56.924Z,8.00
2023-03-15T08:48:36.138Z,7.70
2023-03-15T08:51:13.433Z,7.10
2023-03-15T08:53:49.897Z,8.40
2023-03-15T08:56:27.615Z,7.50
2023-03-15T08:59:02.423Z,7.40
2023-03-15T09:01:41.538Z,6.90
2023-03-15T09:04:17.515Z,7.40
2023-03-15T09:06:55.095Z,8.20
2023-03-15T09:09:38.104Z,8.70
2023-03-15T09:12:19.162Z,7.40
2023-03-15T09:14:57.057Z,7.20
2023-03-15T09:17:37.367Z,7.90
2023-03-15T09:20:17.077Z,6.70
2023-03-15T09:22:56.940Z,8.00
2023-03-15T09:25:35.250Z,7.30
2023-03-15T09:28:14.752Z,7.40
2023-03-15T09:30:51.881Z,7.50
2023-03-15T09:33:31.111Z,9.70
2023-03-15T09:36:13.383Z,7.60
2023-03-15T09:38:49.009Z,6.40
2023-03-15T09:41:43.303Z,7.30
2023-03-15T09:44:36.730Z,6.00
2023-03-15T09:47:37.655Z,5.70
2023-03-15T09:50:22.716Z,6.30
2023-03-15T09:53:04.132Z,7.90
2023-03-15T09:55:41.979Z,7.20
2023-03-15T09:58:21.802Z,6.90
2023-03-15T10:01:03.864Z,6.50
2023-03-15T10:03:49.898Z,7.50
2023-03-15T10:06:38.440Z,6.50
2023-03-15T10:09:23.854Z,7.40
2023-03-15T10:12:10.149Z,7.00
2023-03-15T10:15:18.639Z,6.00
2023-03-15T10:18:16.439Z,6.10
2023-03-15T10:21:00.227Z,5.70
2023-03-15T10:23:49.966Z,6.20
2023-03-15T10:26:30.183Z,5.60
2023-03-15T10:29:15.735Z,5.10
2023-03-15T10:31:54.453Z,5.50
2023-03-15T10:34:30.048Z,5.20
2023-03-15T10:37:06.342Z,5.40
2023-03-15T10:39:48.144Z,5.20
2023-03-15T10:42:32.784Z,6.30
2023-03-15T10:48:00.816Z,4.90
2023-03-15T10:50:41.021Z,5.20
2023-03-15T10:53:22.264Z,5.30
2023-03-15T10:56:15.597Z,6.00
2023-03-15T10:59:09.472Z,4.90
2023-03-15T11:01:51.305Z,5.70
2023-03-15T11:04:29.941Z,5.10
2023-03-15T11:07:13.576Z,5.60
2023-03-15T11:09:57.110Z,5.70
2023-03-15T11:12:36.346Z,4.70
2023-03-15T11:15:16.997Z,5.30
2023-03-15T11:17:58.681Z,5.40
2023-03-15T11:20:37.910Z,5.50
2023-03-15T11:23:22.223Z,6.70
2023-03-15T11:28:41.209Z,8.00
2023-03-15T11:31:17.179Z,5.80
2023-03-15T11:33:57.675Z,7.50
2023-03-15T11:36:38.573Z,7.50
2023-03-15T11:39:28.658Z,6.70
2023-03-15T11:42:15.070Z,7.50
2023-03-15T11:44:55.205Z,6.30
2023-03-15T11:47:44.541Z,6.20
2023-03-15T11:50:24.415Z,6.30
2023-03-15T11:53:05.947Z,6.10
2023-03-15T11:55:41.889Z,5.60
2023-03-15T11:58:35.415Z,5.50
2023-03-15T12:01:17.056Z,5.70
2023-03-15T12:03:56.234Z,6.60
2023-03-15T12:06:43.763Z,4.80
2023-03-15T12:09:52.364Z,5.70
2023-03-15T12:12:44.745Z,5.90
2023-03-15T12:15:49.341Z,5.80
2023-03-15T12:18:33.362Z,4.70
2023-03-15T12:21:22.696Z,5.20
2023-03-15T12:24:10.033Z,6.10
2023-03-15T12:26:48.836Z,5.10
2023-03-15T12:29:29.615Z,6.00
2023-03-15T12:32:18.214Z,5.70
2023-03-15T12:34:59.288Z,5.00
2023-03-15T12:37:48.533Z,5.50
2023-03-15T12:40:52.817Z,5.10
2023-03-15T12:43:45.693Z,5.20
2023-03-15T12:46:57.800Z,4.90
2023-03-15T12:49:43.006Z,4.50
2023-03-15T12:52:43.431Z,4.50
2023-03-15T12:55:23.594Z,5.50
2023-03-15T12:58:02.867Z,4.70
2023-03-15T13:00:42.309Z,4.90
2023-03-15T13:03:22.048Z,4.60
2023-03-15T13:06:15.923Z,4.70
2023-03-15T13:09:02.122Z,4.70
2023-03-15T13:11:43.742Z,4.70
2023-03-15T13:14:34.922Z,4.70
2023-03-15T13:17:22.937Z,5.10
2023-03-15T13:20:15.159Z,4.60
2023-03-15T13:23:00.138Z,4.40
2023-03-15T13:25:42.764Z,5.10
2023-03-15T13:28:25.608Z,5.40
2023-03-15T13:31:04.895Z,4.80
2023-03-15T13:33:41.345Z,4.90
2023-03-15T13:36:21.346Z,4.00
2023-03-15T13:39:00.217Z,5.00
2023-03-15T13:41:35.665Z,5.20
2023-03-15T13:44:21.805Z,5.20
2023-03-15T13:46:57.790Z,5.10
2023-03-15T13:49:42.278Z,4.90
2023-03-15T13:52:17.499Z,5.20
2023-03-15T13:54:56.878Z,4.70
2023-03-15T13:57:33.060Z,4.50
2023-03-15T14:00:14.023Z,4.30
2023-03-15T14:03:03.703Z,4.70
2023-03-15T14:05:50.904Z,5.40
2023-03-15T14:08:31.935Z,4.70
2023-03-15T14:11:12.648Z,5.00
2023-03-15T14:13:59.891Z,4.60
2023-03-15T14:17:01.168Z,5.10
2023-03-15T14:19:42.371Z,4.60
2023-03-15T14:22:24.419Z,5.40
2023-03-15T14:25:01.345Z,4.70
2023-03-15T14:27:39.678Z,4.80
2023-03-15T14:30:25.687Z,5.10
2023-03-15T14:33:07.618Z,5.00
2023-03-15T14:35:48.563Z,5.40
2023-03-15T14:38:29.070Z,5.00
2023-03-15T14:41:26.893Z,4.90
2023-03-15T14:44:03.177Z,5.20
2023-03-15T14:46:45.190Z,4.90
2023-03-15T14:49:29.088Z,5.50
2023-03-15T14:52:08.032Z,5.00
2023-03-15T14:54:51.124Z,4.50
2023-03-15T14:57:29.014Z,5.40
2023-03-15T15:00:16.878Z,5.20
2023-03-15T15:02:57.577Z,4.90
2023-03-15T15:05:35.022Z,5.20
2023-03-15T15:08:15.254Z,4.70
2023-03-15T15:10:53.523Z,4.60
2023-03-15T15:13:31.575Z,4.60
2023-03-15T15:16:08.331Z,4.80
2023-03-15T15:18:47.841Z,4.90
2023-03-15T15:21:28.820Z,5.30
2023-03-15T15:24:08.553Z,4.90
2023-03-15T15:26:55.762Z,4.90
2023-03-15T15:32:10.846Z,5.30
2023-03-15T15:34:48.183Z,6.40
2023-03-15T15:37:27.725Z,5.70
2023-03-15T15:40:06.242Z,5.50
2023-03-15T15:42:44.869Z,5.60
2023-03-15T15:45:25.981Z,6.00
2023-03-15T15:48:05.852Z,5.90
2023-03-15T15:50:45.480Z,5.60
2023-03-15T15:53:22.213Z,5.50
2023-03-15T15:55:57.672Z,5.90
2023-03-15T15:58:32.352Z,7.00
2023-03-15T16:01:14.165Z,5.30
2023-03-15T16:03:49.664Z,5.40
2023-03-15T16:06:27.278Z,5.80
2023-03-15T16:09:05.326Z,5.50
2023-03-15T16:11:42.893Z,5.90
2023-03-15T16:14:17.267Z,5.70
2023-03-15T16:16:53.840Z,5.50
2023-03-15T16:19:32.113Z,4.70
2023-03-15T16:22:06.819Z,5.70
2023-03-15T16:24:45.304Z,6.90
2023-03-15T16:27:28.641Z,5.60
2023-03-15T16:30:04.536Z,5.10
2023-03-15T16:32:44.568Z,5.20
2023-03-15T16:35:22.396Z,5.80
2023-03-15T16:37:59.565Z,6.20
2023-03-15T16:40:38.737Z,5.30
2023-03-15T16:43:21.253Z,5.60
2023-03-15T16:45:58.285Z,5.90
2023-03-15T16:48:33.249Z,5.20
2023-03-15T16:51:12.363Z,5.90
2023-03-15T16:53:48.631Z,5.80
2023-03-15T16:56:25.860Z,5.90
2023-03-15T16:59:03.441Z,5.80
2023-03-15T17:01:39.230Z,5.60
2023-03-15T17:04:14.819Z,4.90
2023-03-15T17:09:28.610Z,5.50
2023-03-15T17:12:03.031Z,5.30
2023-03-15T17:14:41.830Z,5.30
2023-03-15T17:17:21.008Z,4.90
2023-03-15T17:19:56.340Z,5.90
2023-03-15T17:22:31.090Z,5.50
2023-03-15T17:25:12.376Z,5.10
2023-03-15T17:27:51.166Z,4.80
2023-03-15T17:30:28.552Z,5.00
2023-03-15T17:33:04.290Z,4.50
2023-03-15T17:35:41.440Z,5.20
2023-03-15T17:38:23.584Z,5.40
2023-03-15T17:40:58.386Z,5.10
2023-03-15T17:43:36.748Z,5.30
2023-03-15T17:46:15.332Z,5.20
2023-03-15T17:48:53.699Z,5.10
2023-03-15T17:51:38.708Z,4.80
2023-03-15T17:54:27.082Z,5.10
2023-03-15T17:57:10.428Z,5.20
2023-03-15T17:59:45.103Z,5.30
2023-03-15T18:02:22.786Z,5.10
2023-03-15T18:05:01.627Z,5.10
2023-03-15T18:07:41.486Z,5.30
2023-03-15T18:10:25.623Z,5.70
2023-03-15T18:13:04.080Z,5.70
2023-03-15T18:15:40.489Z,6.00
2023-03-15T18:18:16.410Z,5.60
2023-03-15T18:20:52.474Z,5.30
2023-03-15T18:23:27.897Z,5.40
2023-03-15T18:26:06.666Z,6.00
2023-03-15T18:28:44.166Z,6.30
2023-03-15T18:31:21.444Z,6.00
2023-03-15T18:33:58.429Z,5.60
2023-03-15T18:36:35.824Z,5.90
2023-03-15T18:39:10.867Z,6.30
2023-03-15T18:41:48.315Z,6.20
2023-03-15T18:44:27.680Z,6.10
2023-03-15T18:47:08.337Z,6.70
2023-03-15T18:49:46.299Z,7.80
2023-03-15T18:52:24.711Z,6.20
2023-03-15T18:55:01.129Z,5.80
2023-03-15T18:57:41.704Z,5.80
2023-03-15T19:00:27.475Z,7.10
2023-03-15T19:03:04.704Z,6.70
2023-03-15T19:05:42.972Z,6.40
2023-03-15T19:08:17.870Z,6.70
2023-03-15T19:11:00.739Z,6.40
2023-03-15T19:13:41.987Z,6.80
2023-03-15T19:16:16.977Z,7.10
2023-03-15T19:18:55.283Z,6.90
2023-03-15T19:21:32.186Z,8.00
2023-03-15T19:24:10.065Z,7.30
2023-03-15T19:26:47.470Z,7.90
2023-03-15T19:29:23.362Z,7.40
2023-03-15T19:32:00.946Z,7.40
2023-03-15T19:34:39.210Z,7.80
2023-03-15T19:37:17.218Z,8.50
2023-03-15T19:39:53.123Z,8.80
2023-03-15T19:42:29.797Z,7.60
2023-03-15T19:45:08.058Z,8.00
2023-03-15T19:47:44.783Z,7.90
2023-03-15T19:50:22.421Z,7.90
2023-03-15T19:53:05.257Z,8.30
2023-03-15T19:55:44.064Z,7.20
2023-03-15T19:58:19.810Z,8.80
2023-03-15T20:01:00.833Z,9.30
2023-03-15T20:03:38.507Z,6.90
2023-03-15T20:06:18.351Z,7.50
2023-03-15T20:08:56.863Z,8.50
2023-03-15T20:11:32.240Z,11.30
2023-03-15T20:14:09.583Z,8.80
2023-03-15T20:16:45.797Z,11.20
2023-03-15T20:19:24.809Z,10.30
2023-03-15T20:22:00.678Z,10.10
2023-03-15T20:24:41.505Z,10.70
2023-03-15T20:27:21.779Z,10.80
2023-03-15T20:29:59.663Z,9.50
2023-03-15T20:32:36.888Z,9.40
2023-03-15T20:35:13.829Z,9.20
2023-03-15T20:37:48.149Z,8.30
2023-03-15T20:40:26.971Z,9.00
2023-03-15T20:43:02.970Z,8.70
2023-03-15T20:45:43.959Z,9.40
2023-03-15T20:48:18.301Z,8.90
2023-03-15T20:50:54.017Z,9.60
2023-03-15T20:53:28.531Z,9.10
2023-03-15T20:56:10.073Z,8.30
2023-03-15T20:58:47.262Z,8.00
2023-03-15T21:01:25.559Z,7.70
2023-03-15T21:04:04.917Z,8.90
2023-03-15T21:06:39.511Z,9.00
2023-03-15T21:09:19.390Z,7.40
2023-03-15T21:11:59.037Z,8.60
2023-03-15T21:14:35.287Z,8.10
2023-03-15T21:17:11.941Z,7.60
2023-03-15T21:19:49.070Z,8.50
2023-03-15T21:22:29.168Z,8.10
2023-03-15T21:25:06.913Z,7.50
2023-03-15T21:27:43.860Z,8.00
2023-03-15T21:30:20.784Z,8.20
2023-03-15T21:33:01.950Z,7.50
2023-03-15T21:35:39.127Z,7.70
2023-03-15T21:38:18.541Z,7.90
2023-03-15T21:40:59.371Z,7.20
2023-03-15T21:43:37.597Z,8.00
2023-03-15T21:46:16.939Z,8.30
2023-03-15T21:48:54.119Z,9.30
2023-03-15T21:51:32.420Z,8.20
2023-03-15T21:54:08.533Z,8.90
2023-03-15T21:56:46.175Z,8.10
2023-03-15T21:59:29.295Z,9.10
2023-03-15T22:02:07.989Z,9.70
2023-03-15T22:04:42.936Z,9.50
2023-03-15T22:07:25.467Z,8.60
2023-03-15T22:10:03.259Z,8.90
2023-03-15T22:12:41.718Z,9.50
2023-03-15T22:15:18.976Z,9.80
2023-03-15T22:17:55.896Z,10.00
2023-03-15T22:20:32.503Z,9.60
2023-03-15T22:23:10.765Z,9.30
2023-03-15T22:25:47.599Z,9.00
2023-03-15T22:28:26.979Z,9.10
2023-03-15T22:31:04.380Z,8.80
2023-03-15T22:33:40.500Z,9.60
2023-03-15T22:36:18.595Z,9.10
2023-03-15T22:38:54.977Z,9.80
2023-03-15T22:41:33.556Z,9.60
2023-03-15T22:44:08.460Z,9.80
2023-03-15T22:46:45.392Z,8.90
2023-03-15T22:49:20.144Z,9.60
2023-03-15T22:51:58.190Z,9.60
2023-03-15T22:54:33.721Z,9.80
2023-03-15T22:57:09.324Z,9.50
2023-03-15T22:59:45.056Z,9.70
2023-03-15T23:02:23.351Z,10.40
2023-03-15T23:05:00.706Z,9.80
2023-03-15T23:07:36.888Z,9.30
2023-03-15T23:10:15.074Z,10.00
2023-03-15T23:12:54.123Z,9.00
2023-03-15T23:15:32.021Z,9.50
2023-03-15T23:18:06.809Z,10.80
2023-03-15T23:20:45.566Z,10.30
2023-03-15T23:23:21.008Z,9.60
2023-03-15T23:25:56.522Z,10.10
2023-03-15T23:28:32.491Z,9.80
2023-03-15T23:31:10.534Z,9.80
2023-03-15T23:33:47.169Z,10.10
2023-03-15T23:36:22.912Z,10.00
2023-03-15T23:38:59.638Z,9.50
2023-03-15T23:41:37.017Z,10.70
2023-03-15T23:44:11.596Z,10.60
2023-03-15T23:46:50.236Z,10.20
2023-03-15T23:49:27.967Z,9.90
2023-03-15T23:52:05.935Z,9.20
2023-03-15T23:54:42.440Z,9.00
2023-03-15T23:57:23.927Z,9.50
